• Join FlightAware (Why Join?)
  • Login
  • US Flag 
10:14AM EDT


 

Airport Tracker/Info


-or-


 

Live Flight TrackerFlight Track Log ✈ N122CL ✈ 11-Jul-2013 ✈ KVNY - KRDD

Flight Track Log - Related Links

Times and Time Zones

All times are in EDT time to prevent confusion due to time zone crossing. See the N122CL flight status page for this flight to view local times or setup timezone preferences in your user account.

Time Position Orientation Groundspeed Altitude Reporting Facility
EDT Latitude Longitude Course Direction KTS MPH feet Rate Location/Type
12:54PM 34.3833 -118.6500 335° Northwest 151 174 8,000  Level Southern California TRACON
12:55PM 34.4294 -118.6761 335° Northwest 155 178 8,700 600 Climbing Los Angeles Center
12:56PM 34.4803 -118.6947 343° North 159 183 9,400 660 Climbing Los Angeles Center
12:58PM 34.5217 -118.7164 337° Northwest 161 185 10,100 480 Climbing Los Angeles Center
12:59PM 34.5628 -118.7414 333° Northwest 164 189 10,500 180 Climbing Los Angeles Center
01:00PM 34.3809 -118.5844 335° Northwest  Level Estimated
01:00PM 34.6056 -118.7636 337° Northwest 167 192 10,500  Level Los Angeles Center
01:01PM 34.6506 -118.7897 334° Northwest 178 205 10,500  Level Los Angeles Center
01:02PM 34.6950 -118.8114 338° Northwest 173 199 10,500  Level Los Angeles Center
01:03PM 34.7467 -118.8403 335° Northwest 173 199 10,500  Level Los Angeles Center
01:04PM 34.7906 -118.8653 335° Northwest 174 200 10,500  Level Los Angeles Center
01:05PM 34.8342 -118.8886 336° Northwest 173 199 10,600  Climbing Los Angeles Center
01:06PM 34.8778 -118.9133 335° Northwest 174 200 10,600 -60 Level Los Angeles Center
01:07PM 34.9283 -118.9406 336° Northwest 172 198 10,500 -60 Descending Los Angeles Center
01:08PM 34.9733 -118.9653 336° Northwest 175 201 10,500  Level Los Angeles Center
01:09PM 35.0172 -118.9894 336° Northwest 175 201 10,500  Level Los Angeles Center
01:10PM 35.0603 -119.0147 334° Northwest 173 199 10,500  Level Los Angeles Center
01:11PM 35.1050 -119.0381 337° Northwest 174 200 10,500  Level Los Angeles Center
01:12PM 35.1486 -119.0636 334° Northwest 174 200 10,500  Level Los Angeles Center
01:13PM 35.2019 -119.0911 337° Northwest 174 200 10,500  Level Los Angeles Center
01:14PM 35.2450 -119.1164 334° Northwest 173 199 10,500  Level Los Angeles Center
01:15PM 35.2894 -119.1414 335° Northwest 175 201 10,500  Level Los Angeles Center
01:16PM 35.3353 -119.1658 336° Northwest 177 204 10,500  Level Los Angeles Center
01:17PM 35.3789 -119.1911 335° Northwest 176 203 10,500  Level Los Angeles Center
01:18PM 35.4306 -119.2214 334° Northwest 173 199 10,500  Level Los Angeles Center
01:20PM 35.4737 -119.2442 337° Northwest  Level FlightAware Approximate
01:20PM 35.5119 -119.2658 337° Northwest 176 203 10,500  Level Oakland Center
01:21PM 35.5650 -119.2961 335° Northwest 176 203 10,500  Level Oakland Center
01:22PM 35.6094 -119.3214 335° Northwest 176 203 10,600  Climbing Oakland Center
01:23PM 35.6542 -119.3464 336° Northwest 176 203 10,500 -60 Descending Oakland Center
01:24PM 35.6989 -119.3717 335° Northwest 177 204 10,500  Level Oakland Center
01:25PM 35.7439 -119.3969 335° Northwest 177 204 10,500  Level Oakland Center
01:26PM 35.7886 -119.4222 335° Northwest 177 204 10,600  Climbing Oakland Center
01:27PM 35.8333 -119.4478 335° Northwest 177 204 10,600 -60 Level Oakland Center
01:28PM 35.8869 -119.4789 335° Northwest 178 205 10,500  Descending Oakland Center
01:29PM 35.9322 -119.5042 336° Northwest 178 205 10,600  Climbing Oakland Center
01:30PM 35.9781 -119.5303 335° Northwest 179 206 10,600 -60 Level Oakland Center
01:31PM 36.0242 -119.5544 337° Northwest 180 207 10,500  Descending Oakland Center
01:33PM 36.0694 -119.5808 335° Northwest 180 207 10,600  Climbing Oakland Center
01:34PM 36.1200 -119.6061 338° Northwest 180 207 10,600  Level Oakland Center
01:35PM 36.1614 -119.6306 335° Northwest 180 207 10,600 -60 Level Oakland Center
01:36PM 36.2150 -119.6642 333° Northwest 181 208 10,500  Descending Oakland Center
01:37PM 36.2608 -119.6906 335° Northwest 183 211 10,600  Climbing Oakland Center
01:38PM 36.3064 -119.7153 336° Northwest 181 208 10,500 -60 Descending Oakland Center
01:39PM 36.3553 -119.7431 335° Northwest 183 211 10,500  Level Oakland Center
01:40PM 36.3983 -119.7686 334° Northwest 182 209 10,600  Climbing Oakland Center
01:41PM 36.4436 -119.7956 334° Northwest 182 209 10,600  Level Oakland Center
01:42PM 36.4894 -119.8225 335° Northwest 182 209 10,600 -60 Level Oakland Center
01:43PM 36.5456 -119.8547 335° Northwest 185 213 10,500  Descending Oakland Center
01:44PM 36.5919 -119.8817 335° Northwest 184 212 10,600  Climbing Oakland Center
01:45PM 36.6389 -119.9092 335° Northwest 186 214 10,500 -60 Descending Oakland Center
01:46PM 36.6897 -119.9381 336° Northwest 189 217 10,500  Level Oakland Center
01:47PM 36.7339 -119.9647 334° Northwest 189 217 10,500  Level Oakland Center
01:48PM 36.7864 -119.9964 334° Northwest 189 217 10,500  Level Oakland Center
01:49PM 36.8331 -120.0236 335° Northwest 189 217 10,500  Level Oakland Center
01:50PM 36.8839 -120.0536 335° Northwest 189 217 10,600  Climbing Oakland Center
01:51PM 36.9331 -120.0831 334° Northwest 189 217 10,500 -60 Descending Oakland Center
01:52PM 36.9811 -120.1114 335° Northwest 192 221 10,500  Level Oakland Center
01:53PM 37.0281 -120.1397 334° Northwest 188 216 10,500  Level Oakland Center
01:54PM 37.0778 -120.1692 335° Northwest 187 215 10,500  Level Oakland Center
01:55PM 37.1286 -120.1986 335° Northwest 188 216 10,500  Level Oakland Center
01:57PM 37.2239 -120.2561 334° Northwest 192 221 10,500  Level Oakland Center
01:58PM 37.2719 -120.2847 335° Northwest 192 221 10,500  Level Oakland Center
01:59PM 37.3197 -120.3128 335° Northwest 191 220 10,500  Level Oakland Center
02:00PM 37.3669 -120.3431 333° Northwest 197 227 10,500  Level Oakland Center
02:01PM 37.4147 -120.3711 335° Northwest 190 219 10,500  Level Oakland Center
02:02PM 37.4625 -120.4014 333° Northwest 192 221 10,500  Level Oakland Center
02:03PM 37.5208 -120.4358 335° Northwest 196 226 10,500  Level Oakland Center
02:04PM 37.5667 -120.4667 332° Northwest 194 223 10,500  Level Northern Cal TRACON
02:05PM 37.6167 -120.4833 345° North 195 224 10,500  Level Northern Cal TRACON
02:06PM 37.6667 -120.5167 332° Northwest 194 223 10,500  Level Northern Cal TRACON
02:07PM 37.7167 -120.5500 332° Northwest 194 223 10,500  Level Northern Cal TRACON
02:08PM 37.7667 -120.5667 345° North 197 227 10,500  Level Northern Cal TRACON
02:09PM 37.8167 -120.6000 332° Northwest 197 227 10,500  Level Northern Cal TRACON
02:10PM 37.8500 -120.6333 322° Northwest 196 226 10,500  Level Northern Cal TRACON
02:11PM 37.9000 -120.6667 332° Northwest 193 222 10,500  Level Northern Cal TRACON
02:12PM 37.9667 -120.7000 338° Northwest 194 223 10,500  Level Northern Cal TRACON
02:13PM 38.0000 -120.7167 338° Northwest 196 226 10,500  Level Northern Cal TRACON
02:14PM 38.0500 -120.7500 332° Northwest 196 226 10,500  Level Northern Cal TRACON
02:15PM 38.1000 -120.7833 332° Northwest 199 229 10,500  Level Northern Cal TRACON
02:16PM 38.1500 -120.8167 332° Northwest 198 228 10,500  Level Northern Cal TRACON
02:17PM 38.1703 -120.8181 357° North 196 226 10,500  Level Oakland Center
02:18PM 38.2194 -120.8481 334° Northwest 196 226 10,500  Level Oakland Center
02:19PM 38.2692 -120.8789 334° Northwest 198 228 10,600  Climbing Oakland Center
02:20PM 38.3278 -120.9147 334° Northwest 195 224 10,500 -60 Descending Oakland Center
02:21PM 38.3767 -120.9450 334° Northwest 196 226 10,500  Level Oakland Center
02:22PM 38.4261 -120.9756 334° Northwest 199 229 10,500  Level Oakland Center
02:23PM 38.4744 -121.0053 334° Northwest 196 226 10,500  Level Oakland Center
02:24PM 38.5233 -121.0356 334° Northwest 196 226 10,500  Level Oakland Center
02:25PM 38.5722 -121.0650 335° Northwest 196 226 10,500  Level Oakland Center
02:26PM 38.6206 -121.0942 335° Northwest 195 224 10,500  Level Oakland Center
02:27PM 38.6786 -121.1306 334° Northwest 195 224 10,600  Climbing Oakland Center
02:28PM 38.7272 -121.1606 334° Northwest 195 224 10,500 -60 Descending Oakland Center
02:29PM 38.7758 -121.1900 335° Northwest 194 223 10,500  Level Oakland Center
02:30PM 38.8333 -121.2333 330° Northwest 194 223 10,500 -60 Level Northern Cal TRACON
02:31PM 38.8833 -121.2500 345° North 190 219 10,400 -60 Descending Northern Cal TRACON
02:32PM 38.9333 -121.2833 333° Northwest 188 216 10,400  Level Northern Cal TRACON
02:33PM 38.9833 -121.3167 333° Northwest 184 212 10,400  Level Northern Cal TRACON
02:34PM 39.0333 -121.3500 333° Northwest 186 214 10,400  Level Northern Cal TRACON
02:35PM 39.0667 -121.3833 322° Northwest 186 214 10,400  Level Northern Cal TRACON
02:36PM 39.1167 -121.4000 346° North 185 213 10,400  Level Northern Cal TRACON
02:37PM 39.1667 -121.4333 333° Northwest 186 214 10,500  Climbing Northern Cal TRACON
02:38PM 39.2167 -121.4667 333° Northwest 188 216 10,400 -60 Descending Northern Cal TRACON
02:39PM 39.2667 -121.4833 346° North 185 213 10,400  Level Northern Cal TRACON
02:40PM 39.3000 -121.5167 322° Northwest 184 212 10,400  Level Northern Cal TRACON
02:41PM 39.3553 -121.5517 334° Northwest 184 212 10,500  Climbing Oakland Center
02:42PM 39.4014 -121.5819 333° Northwest 185 213 10,500  Level Oakland Center
02:43PM 39.4483 -121.6100 335° Northwest 186 214 10,500  Level Oakland Center
02:44PM 39.4978 -121.6419 334° Northwest 184 212 10,500  Level Oakland Center
02:45PM 39.5436 -121.6717 333° Northwest 184 212 10,500  Level Oakland Center
02:46PM 39.5897 -121.7017 333° Northwest 185 213 10,500  Level Oakland Center
02:47PM 39.6356 -121.7303 334° Northwest 184 212 10,500  Level Oakland Center
02:48PM 39.6819 -121.7597 334° Northwest 185 213 10,500  Level Oakland Center
02:50PM 39.7278 -121.7889 334° Northwest 183 211 10,500 -240 Level Oakland Center
02:51PM 39.7758 -121.8211 333° Northwest 190 219 10,100 -600 Descending Oakland Center
02:52PM 39.8361 -121.8558 336° Northwest 198 228 9,300 -840 Descending Oakland Center